createdAt,value
2022-08-07T00:02:37.373Z,16.97
2022-08-07T00:05:00.816Z,16.88
2022-08-07T00:07:40.189Z,16.83
2022-08-07T00:10:26.618Z,16.84
2022-08-07T00:12:58.009Z,16.79
2022-08-07T00:15:37.697Z,16.78
2022-08-07T00:18:19.340Z,16.77
2022-08-07T00:20:49.462Z,16.73
2022-08-07T00:23:17.061Z,16.69
2022-08-07T00:25:45.873Z,16.73
2022-08-07T00:28:22.152Z,16.75
2022-08-07T00:30:48.712Z,16.73
2022-08-07T00:33:15.656Z,16.75
2022-08-07T00:35:45.370Z,16.71
2022-08-07T00:38:16.657Z,16.68
2022-08-07T00:40:59.182Z,16.60
2022-08-07T00:44:00.521Z,16.58
2022-08-07T00:46:12.769Z,16.54
2022-08-07T00:48:42.215Z,16.51
2022-08-07T00:51:09.710Z,16.49
2022-08-07T00:53:39.200Z,16.46
2022-08-07T00:56:18.301Z,16.46
2022-08-07T00:58:47.153Z,16.44
2022-08-07T01:01:17.322Z,16.45
2022-08-07T01:03:55.609Z,16.44
2022-08-07T01:06:25.011Z,16.31
2022-08-07T01:08:53.350Z,16.31
2022-08-07T01:12:04.414Z,16.29
2022-08-07T01:14:09.446Z,16.22
2022-08-07T01:16:37.048Z,16.25
2022-08-07T01:19:18.250Z,16.26
2022-08-07T01:21:49.404Z,16.25
2022-08-07T01:24:21.564Z,16.25
2022-08-07T01:26:52.116Z,16.24
2022-08-07T01:29:23.217Z,16.24
2022-08-07T01:31:52.432Z,16.25
2022-08-07T01:34:20.638Z,16.24
2022-08-07T01:36:58.713Z,16.25
2022-08-07T01:39:41.201Z,16.15
2022-08-07T01:42:37.883Z,16.14
2022-08-07T01:45:09.715Z,16.17
2022-08-07T01:48:21.129Z,16.17
2022-08-07T01:50:31.035Z,16.15
2022-08-07T01:52:59.051Z,16.07
2022-08-07T01:55:37.514Z,16.10
2022-08-07T01:58:29.513Z,16.01
2022-08-07T02:01:10.140Z,15.96
2022-08-07T02:03:51.246Z,15.99
2022-08-07T02:06:32.027Z,15.97
2022-08-07T02:09:04.706Z,15.98
2022-08-07T02:12:02.681Z,15.93
2022-08-07T02:14:35.742Z,15.83
2022-08-07T02:17:06.051Z,15.82
2022-08-07T02:20:06.898Z,15.82
2022-08-07T02:22:26.182Z,15.84
2022-08-07T02:24:56.265Z,15.86
2022-08-07T02:27:25.025Z,15.80
2022-08-07T02:29:54.733Z,15.83
2022-08-07T02:32:29.944Z,15.80
2022-08-07T02:34:58.305Z,15.79
2022-08-07T02:37:28.175Z,15.79
2022-08-07T02:40:29.608Z,15.68
2022-08-07T02:42:56.148Z,15.65
2022-08-07T02:46:00.276Z,15.66
2022-08-07T02:48:15.662Z,15.60
2022-08-07T02:50:53.438Z,15.62
2022-08-07T02:53:27.470Z,15.63
2022-08-07T02:56:04.076Z,15.62
2022-08-07T02:58:34.520Z,15.66
2022-08-07T03:01:04.011Z,15.65
2022-08-07T03:03:49.489Z,15.67
2022-08-07T03:06:25.833Z,15.63
2022-08-07T03:09:03.963Z,15.59
2022-08-07T03:11:32.619Z,15.55
2022-08-07T03:14:02.071Z,15.56
2022-08-07T03:16:30.934Z,15.53
2022-08-07T03:19:01.497Z,15.48
2022-08-07T03:21:28.977Z,15.52
2022-08-07T03:24:20.658Z,15.51
2022-08-07T03:26:51.314Z,15.53
2022-08-07T03:29:28.297Z,15.56
2022-08-07T03:31:55.896Z,15.53
2022-08-07T03:34:27.173Z,15.55
2022-08-07T03:36:58.050Z,15.54
2022-08-07T03:39:59.145Z,15.54
2022-08-07T03:42:16.350Z,15.48
2022-08-07T03:44:47.141Z,15.46
2022-08-07T03:47:20.575Z,15.45
2022-08-07T03:49:52.240Z,15.50
2022-08-07T03:52:27.558Z,15.48
2022-08-07T03:55:06.906Z,15.49
2022-08-07T03:58:34.438Z,15.45
2022-08-07T04:00:33.574Z,15.34
2022-08-07T04:03:03.836Z,15.27
2022-08-07T04:05:41.072Z,15.25
2022-08-07T04:08:16.039Z,15.23
2022-08-07T04:10:54.528Z,15.27
2022-08-07T04:14:10.268Z,15.24
2022-08-07T04:16:31.093Z,15.17
2022-08-07T04:19:12.308Z,15.13
2022-08-07T04:21:59.592Z,15.10
2022-08-07T04:24:39.071Z,15.04
2022-08-07T04:27:15.341Z,15.11
2022-08-07T04:30:01.700Z,15.06
2022-08-07T04:33:07.784Z,14.98
2022-08-07T04:35:38.171Z,15.00
2022-08-07T04:38:11.513Z,14.96
2022-08-07T04:40:51.859Z,14.89
2022-08-07T04:44:11.951Z,14.87
2022-08-07T04:47:04.936Z,14.94
2022-08-07T04:50:05.447Z,14.91
2022-08-07T04:53:05.843Z,14.95
2022-08-07T04:58:13.247Z,14.96
2022-08-07T04:59:17.061Z,14.95
2022-08-07T05:01:30.003Z,14.96
2022-08-07T05:04:17.246Z,14.92
2022-08-07T05:07:09.603Z,14.93
2022-08-07T05:10:11.743Z,14.96
2022-08-07T05:16:04.534Z,14.98
2022-08-07T05:18:47.268Z,14.98
2022-08-07T05:22:00.472Z,15.04
2022-08-07T05:24:10.543Z,15.12
2022-08-07T05:26:38.717Z,15.19
2022-08-07T05:29:10.156Z,15.18
2022-08-07T05:31:40.589Z,15.24
2022-08-07T05:34:21.065Z,15.23
2022-08-07T05:36:54.493Z,15.29
2022-08-07T05:40:18.442Z,15.29
2022-08-07T05:42:15.116Z,15.34
2022-08-07T05:45:14.750Z,15.35
2022-08-07T05:48:01.676Z,15.46
2022-08-07T05:50:34.210Z,15.50
2022-08-07T05:56:34.418Z,15.68
2022-08-07T05:59:03.257Z,15.76
2022-08-07T06:01:34.798Z,15.86
2022-08-07T06:04:04.477Z,15.96
2022-08-07T06:06:36.989Z,16.08
2022-08-07T06:09:06.364Z,16.18
2022-08-07T06:11:38.142Z,16.21
2022-08-07T06:14:13.697Z,16.28
2022-08-07T06:16:56.285Z,16.33
2022-08-07T06:19:57.496Z,16.42
2022-08-07T06:22:23.817Z,16.50
2022-08-07T06:25:04.012Z,16.53
2022-08-07T06:27:59.675Z,16.59
2022-08-07T06:30:24.366Z,16.67
2022-08-07T06:33:02.339Z,16.79
2022-08-07T06:35:45.934Z,16.88
2022-08-07T06:38:20.115Z,16.99
2022-08-07T06:40:51.918Z,17.08
2022-08-07T06:43:23.458Z,17.15
2022-08-07T06:46:11.463Z,17.25
2022-08-07T06:48:42.015Z,17.28
2022-08-07T06:51:31.101Z,17.32
2022-08-07T06:55:30.203Z,17.42
2022-08-07T06:56:50.839Z,17.52
2022-08-07T07:00:16.933Z,17.57
2022-08-07T07:02:48.924Z,17.61
2022-08-07T07:05:08.953Z,17.68
2022-08-07T07:07:59.315Z,17.72
2022-08-07T07:10:30.334Z,17.81
2022-08-07T07:13:04.142Z,17.87
2022-08-07T07:15:36.081Z,17.91
2022-08-07T07:18:48.212Z,17.96
2022-08-07T07:21:27.153Z,18.06
2022-08-07T07:24:13.447Z,18.16
2022-08-07T07:26:41.734Z,18.25
2022-08-07T07:29:38.932Z,18.31
2022-08-07T07:32:10.360Z,18.39
2022-08-07T07:34:40.426Z,18.48
2022-08-07T07:37:21.543Z,18.57
2022-08-07T07:39:58.238Z,18.66
2022-08-07T07:42:33.283Z,18.72
2022-08-07T07:45:01.797Z,18.75
2022-08-07T07:47:29.342Z,18.82
2022-08-07T07:50:32.770Z,18.88
2022-08-07T07:52:44.578Z,18.94
2022-08-07T07:55:14.749Z,19.05
2022-08-07T07:57:50.489Z,19.15
2022-08-07T08:00:29.167Z,19.22
2022-08-07T08:03:05.005Z,19.27
2022-08-07T08:05:50.834Z,19.35
2022-08-07T08:08:34.395Z,19.41
2022-08-07T08:11:08.137Z,19.49
2022-08-07T08:13:53.408Z,19.59
2022-08-07T08:16:26.385Z,19.64
2022-08-07T08:18:56.852Z,19.74
2022-08-07T08:22:02.799Z,19.86
2022-08-07T08:24:57.096Z,19.93
2022-08-07T08:27:37.115Z,20.02
2022-08-07T08:30:14.377Z,20.12
2022-08-07T08:32:59.619Z,20.19
2022-08-07T08:35:28.937Z,20.33
2022-08-07T08:38:06.917Z,20.45
2022-08-07T08:40:47.364Z,20.53
2022-08-07T08:43:20.799Z,20.60
2022-08-07T08:46:17.378Z,20.68
2022-08-07T08:48:55.817Z,20.75
2022-08-07T08:52:12.707Z,20.84
2022-08-07T08:54:38.968Z,20.91
2022-08-07T08:57:11.391Z,21.03
2022-08-07T08:59:54.103Z,21.19
2022-08-07T09:02:37.418Z,21.30
2022-08-07T09:05:36.729Z,21.41
2022-08-07T09:08:41.537Z,21.48
2022-08-07T09:11:24.730Z,21.54
2022-08-07T09:14:15.148Z,21.61
2022-08-07T09:16:59.807Z,21.69
2022-08-07T09:20:34.833Z,21.75
2022-08-07T09:24:54.865Z,21.82
2022-08-07T09:25:54.652Z,21.92
2022-08-07T09:30:06.559Z,22.00
2022-08-07T09:31:55.039Z,22.07
2022-08-07T09:34:32.681Z,22.11
2022-08-07T09:37:13.948Z,22.13
2022-08-07T09:39:54.354Z,22.20
2022-08-07T09:42:39.658Z,22.24
2022-08-07T09:47:25.694Z,22.34
2022-08-07T09:48:20.572Z,22.47
2022-08-07T09:51:14.518Z,22.56
2022-08-07T09:54:02.584Z,22.66
2022-08-07T09:56:54.789Z,22.79
2022-08-07T09:59:46.293Z,22.93
2022-08-07T10:03:08.081Z,23.02
2022-08-07T10:06:24.785Z,23.03
2022-08-07T10:10:00.355Z,23.02
2022-08-07T10:12:42.087Z,23.11
2022-08-07T10:15:37.783Z,23.22
2022-08-07T10:18:26.357Z,23.20
2022-08-07T10:21:50.688Z,23.22
2022-08-07T10:24:08.556Z,23.27
2022-08-07T10:26:52.987Z,23.28
2022-08-07T10:29:31.940Z,23.33
2022-08-07T10:32:53.033Z,23.39
2022-08-07T10:35:56.772Z,23.39
2022-08-07T10:38:41.137Z,23.45
2022-08-07T10:41:54.686Z,23.52
2022-08-07T10:44:19.320Z,23.48
2022-08-07T10:47:19.286Z,23.53
2022-08-07T10:50:02.648Z,23.56
2022-08-07T10:52:42.601Z,23.58
2022-08-07T10:55:26.824Z,23.58
2022-08-07T10:58:13.700Z,23.71
2022-08-07T11:00:58.463Z,23.83
2022-08-07T11:03:52.560Z,23.87
2022-08-07T11:06:28.888Z,23.94
2022-08-07T11:09:11.122Z,23.94
2022-08-07T11:12:04.664Z,23.92
2022-08-07T11:14:57.375Z,23.95
2022-08-07T11:17:43.257Z,23.94
2022-08-07T11:20:24.512Z,23.96
2022-08-07T11:22:54.206Z,24.06
2022-08-07T11:25:27.903Z,24.17
2022-08-07T11:28:04.074Z,24.15
2022-08-07T11:30:53.968Z,24.22
2022-08-07T11:33:53.876Z,24.22
2022-08-07T11:36:37.026Z,24.28
2022-08-07T11:39:59.361Z,24.36
2022-08-07T11:42:47.541Z,24.45
2022-08-07T11:45:53.636Z,24.53
2022-08-07T11:49:50.316Z,24.53
2022-08-07T11:52:10.150Z,24.44
2022-08-07T11:56:15.503Z,24.42
2022-08-07T11:58:16.664Z,24.46
2022-08-07T12:01:00.103Z,24.57
2022-08-07T12:03:49.738Z,24.61
2022-08-07T12:06:37.639Z,24.63
2022-08-07T12:09:23.740Z,24.64
2022-08-07T12:12:23.440Z,24.68
2022-08-07T12:15:35.440Z,24.72
2022-08-07T12:18:03.125Z,24.73
2022-08-07T12:20:58.270Z,24.81
2022-08-07T12:24:07.599Z,24.88
2022-08-07T12:26:53.948Z,25.05
2022-08-07T12:29:37.862Z,25.14
2022-08-07T12:32:29.255Z,25.14
2022-08-07T12:34:56.590Z,25.14
2022-08-07T12:37:28.224Z,25.15
2022-08-07T12:40:43.684Z,25.22
2022-08-07T12:43:02.923Z,25.30
2022-08-07T12:45:43.395Z,25.37
2022-08-07T12:48:48.382Z,25.29
2022-08-07T12:51:19.660Z,25.27
2022-08-07T12:54:03.188Z,25.28
2022-08-07T12:56:51.340Z,25.41
2022-08-07T12:59:33.034Z,25.50
2022-08-07T13:02:17.368Z,25.48
2022-08-07T13:05:02.537Z,25.54
2022-08-07T13:08:11.855Z,25.63
2022-08-07T13:11:30.648Z,25.74
2022-08-07T13:14:25.814Z,25.78
2022-08-07T13:17:21.357Z,25.90
2022-08-07T13:19:55.682Z,26.07
2022-08-07T13:22:32.766Z,26.19
2022-08-07T13:25:24.274Z,26.14
2022-08-07T13:28:25.223Z,26.12
2022-08-07T13:31:02.062Z,26.07
2022-08-07T13:34:33.919Z,26.10
2022-08-07T13:36:44.445Z,26.16
2022-08-07T13:39:49.827Z,26.24
2022-08-07T13:42:14.098Z,26.40
2022-08-07T13:45:11.760Z,26.58
2022-08-07T13:48:05.256Z,26.60
2022-08-07T13:50:32.721Z,26.59
2022-08-07T13:53:05.439Z,26.49
2022-08-07T13:55:36.905Z,26.43
2022-08-07T13:58:27.904Z,26.41
2022-08-07T14:01:00.198Z,26.44
2022-08-07T14:04:08.215Z,26.50
2022-08-07T14:06:38.376Z,26.61
2022-08-07T14:09:06.170Z,26.70
2022-08-07T14:11:53.310Z,26.74
2022-08-07T14:14:31.207Z,26.73
2022-08-07T14:17:51.530Z,26.70
2022-08-07T14:20:40.630Z,26.80
2022-08-07T14:22:41.427Z,26.89
2022-08-07T14:25:13.744Z,27.03
2022-08-07T14:28:10.964Z,27.11
2022-08-07T14:30:33.933Z,27.14
2022-08-07T14:33:04.261Z,27.22
2022-08-07T14:35:44.559Z,27.28
2022-08-07T14:38:26.247Z,27.27
2022-08-07T14:41:02.267Z,27.24
2022-08-07T14:43:57.321Z,27.23
2022-08-07T14:46:31.104Z,27.30
2022-08-07T14:48:58.707Z,27.26
2022-08-07T14:51:27.964Z,27.23
2022-08-07T14:57:04.026Z,27.18
2022-08-07T15:00:03.301Z,27.19
2022-08-07T15:02:32.091Z,27.17
2022-08-07T15:07:51.020Z,27.23
2022-08-07T15:10:26.119Z,27.22
2022-08-07T15:13:11.575Z,27.24
2022-08-07T15:15:42.966Z,27.31
2022-08-07T15:18:28.529Z,27.28
2022-08-07T15:21:08.004Z,27.46
2022-08-07T15:26:33.570Z,27.58
2022-08-07T15:30:06.691Z,27.52
2022-08-07T15:32:01.677Z,27.43
2022-08-07T15:34:36.871Z,27.47
2022-08-07T15:37:06.561Z,27.51
2022-08-07T15:39:58.971Z,27.43
2022-08-07T15:45:21.997Z,27.44
2022-08-07T15:48:08.680Z,27.36
2022-08-07T15:53:51.910Z,27.33
2022-08-07T15:56:24.126Z,27.39
2022-08-07T15:58:59.892Z,27.44
2022-08-07T16:01:40.461Z,27.46
2022-08-07T16:04:14.554Z,27.41
2022-08-07T16:06:51.959Z,27.43
2022-08-07T16:09:22.696Z,27.43
2022-08-07T16:12:13.838Z,27.38
2022-08-07T16:15:55.563Z,27.34
2022-08-07T16:18:49.796Z,27.36
2022-08-07T16:22:03.075Z,27.35
2022-08-07T16:24:33.677Z,27.39
2022-08-07T16:27:24.553Z,27.41
2022-08-07T16:30:30.533Z,27.46
2022-08-07T16:34:02.251Z,27.46
2022-08-07T16:36:19.680Z,27.40
2022-08-07T16:39:01.439Z,27.42
2022-08-07T16:41:59.480Z,27.45
2022-08-07T16:45:14.210Z,27.27
2022-08-07T16:47:56.577Z,27.15
2022-08-07T16:51:21.748Z,27.03
2022-08-07T16:54:06.103Z,26.95
2022-08-07T16:56:40.260Z,26.89
2022-08-07T16:59:15.175Z,26.88
2022-08-07T17:02:03.433Z,26.83
2022-08-07T17:04:37.005Z,26.80
2022-08-07T17:07:51.637Z,26.86
2022-08-07T17:10:54.288Z,26.85
2022-08-07T17:13:41.843Z,26.77
2022-08-07T17:16:29.427Z,26.69
2022-08-07T17:19:03.227Z,26.64
2022-08-07T17:21:50.623Z,26.63
2022-08-07T17:24:42.330Z,26.56
2022-08-07T17:27:32.652Z,26.57
2022-08-07T17:30:16.010Z,26.53
2022-08-07T17:33:04.250Z,26.53
2022-08-07T17:36:19.938Z,26.41
2022-08-07T17:39:17.851Z,26.31
2022-08-07T17:42:06.538Z,26.23
2022-08-07T17:44:51.845Z,26.19
2022-08-07T17:47:44.679Z,26.14
2022-08-07T17:50:30.258Z,26.12
2022-08-07T17:53:59.845Z,26.09
2022-08-07T17:56:14.938Z,26.06
2022-08-07T17:58:57.035Z,26.03
2022-08-07T18:01:39.110Z,25.97
2022-08-07T18:04:16.298Z,25.92
2022-08-07T18:07:22.655Z,25.83
2022-08-07T18:10:06.596Z,25.82
2022-08-07T18:13:11.609Z,25.72
2022-08-07T18:16:04.686Z,25.66
2022-08-07T18:21:01.225Z,25.62
2022-08-07T18:21:58.337Z,25.57
2022-08-07T18:24:35.273Z,25.56
2022-08-07T18:27:17.940Z,25.50
2022-08-07T18:30:07.563Z,25.45
2022-08-07T18:32:52.471Z,25.44
2022-08-07T18:35:52.038Z,25.40
2022-08-07T18:39:01.210Z,25.35
2022-08-07T18:41:59.538Z,25.27
2022-08-07T18:50:05.972Z,25.06
2022-08-07T18:52:33.816Z,24.99
2022-08-07T18:54:38.212Z,24.90
2022-08-07T18:57:29.871Z,24.78
2022-08-07T19:00:33.032Z,24.64
2022-08-07T19:03:15.932Z,24.49
2022-08-07T19:06:02.076Z,24.39
2022-08-07T19:08:46.246Z,24.29
2022-08-07T19:11:36.210Z,24.25
2022-08-07T19:14:19.792Z,24.18
2022-08-07T19:17:06.846Z,24.13
2022-08-07T19:19:41.695Z,24.03
2022-08-07T19:22:31.081Z,23.95
2022-08-07T19:25:06.287Z,23.97
2022-08-07T19:28:56.538Z,23.92
2022-08-07T19:31:40.580Z,23.81
2022-08-07T19:34:03.363Z,23.74
2022-08-07T20:22:18.015Z,23.07
2022-08-07T20:25:00.133Z,23.05
2022-08-07T20:27:46.230Z,22.98
2022-08-07T20:30:14.309Z,22.96
2022-08-07T20:32:50.373Z,22.91
2022-08-07T20:35:25.260Z,22.85
2022-08-07T20:37:58.740Z,22.80
2022-08-07T20:40:32.951Z,22.75
2022-08-07T20:43:02.757Z,22.72
2022-08-07T20:46:26.612Z,22.67
2022-08-07T20:48:28.807Z,22.60
2022-08-07T20:50:58.645Z,22.52
2022-08-07T20:53:25.864Z,22.49
2022-08-07T20:56:12.284Z,22.45
2022-08-07T20:58:47.917Z,22.40
2022-08-07T21:01:19.500Z,22.35
2022-08-07T21:04:18.838Z,22.31
2022-08-07T21:06:37.272Z,22.23
2022-08-07T21:09:14.120Z,22.13
2022-08-07T21:11:50.762Z,22.08
2022-08-07T21:14:33.367Z,22.01
2022-08-07T21:18:03.738Z,21.97
2022-08-07T21:20:00.978Z,21.93
2022-08-07T21:22:53.477Z,21.85
2022-08-07T21:25:30.684Z,21.81
2022-08-07T21:28:13.507Z,21.77
2022-08-07T21:30:49.300Z,21.71
2022-08-07T21:33:38.410Z,21.66
2022-08-07T21:36:34.528Z,21.62
2022-08-07T21:39:44.900Z,21.57
2022-08-07T21:42:37.711Z,21.51
2022-08-07T21:45:08.479Z,21.46
2022-08-07T21:48:03.980Z,21.40
2022-08-07T21:50:37.869Z,21.39
2022-08-07T21:53:29.138Z,21.31
2022-08-07T21:56:35.736Z,21.27
2022-08-07T21:59:05.340Z,21.22
2022-08-07T22:02:07.605Z,21.20
2022-08-07T22:04:35.404Z,21.17
2022-08-07T22:07:21.089Z,21.15
2022-08-07T22:09:54.329Z,21.09
2022-08-07T22:12:31.780Z,21.07
2022-08-07T22:16:42.457Z,21.06
2022-08-07T22:18:00.233Z,21.06
2022-08-07T22:20:51.943Z,21.02
2022-08-07T22:23:21.649Z,21.04
2022-08-07T22:26:12.719Z,20.98
2022-08-07T22:28:53.217Z,20.94
2022-08-07T22:32:00.252Z,20.91
2022-08-07T22:34:58.782Z,20.87
2022-08-07T22:38:05.357Z,20.88
2022-08-07T22:41:11.642Z,20.82
2022-08-07T22:43:47.439Z,20.79
2022-08-07T22:46:55.980Z,20.73
2022-08-07T22:49:51.781Z,20.72
2022-08-07T22:52:37.492Z,20.71
2022-08-07T22:55:31.070Z,20.70
2022-08-07T22:58:25.009Z,20.68
2022-08-07T23:01:42.061Z,20.61
2022-08-07T23:04:58.381Z,20.54
2022-08-07T23:07:43.607Z,20.49
2022-08-07T23:10:38.014Z,20.48
2022-08-07T23:13:29.525Z,20.43
2022-08-07T23:16:44.876Z,20.34
2022-08-07T23:19:51.941Z,20.32
2022-08-07T23:22:49.529Z,20.31
2022-08-07T23:25:57.689Z,20.23
2022-08-07T23:28:33.174Z,20.19
2022-08-07T23:31:42.911Z,20.17
2022-08-07T23:34:19.987Z,20.14
2022-08-07T23:37:19.282Z,20.10
2022-08-07T23:40:02.516Z,20.09
2022-08-07T23:42:56.689Z,20.06
2022-08-07T23:46:01.726Z,20.01
2022-08-07T23:48:29.384Z,19.96
2022-08-07T23:51:00.636Z,19.96
2022-08-07T23:53:49.407Z,20.01
2022-08-07T23:56:23.521Z,19.98
